sensor_id;sensor_type;location;lat;lon;timestamp;P1;durP1;ratioP1;P2;durP2;ratioP2
53293;SDS011;39181;53.440;5.644;2024-02-28T00:02:05;9.23;;;2.60;;
53293;SDS011;39181;53.440;5.644;2024-02-28T00:04:30;8.13;;;2.90;;
53293;SDS011;39181;53.440;5.644;2024-02-28T00:06:56;8.43;;;3.28;;
53293;SDS011;39181;53.440;5.644;2024-02-28T00:09:22;12.82;;;3.45;;
53293;SDS011;39181;53.440;5.644;2024-02-28T00:11:47;6.18;;;2.70;;
53293;SDS011;39181;53.440;5.644;2024-02-28T00:14:13;11.35;;;3.50;;
53293;SDS011;39181;53.440;5.644;2024-02-28T00:16:42;12.13;;;3.65;;
53293;SDS011;39181;53.440;5.644;2024-02-28T00:19:08;6.57;;;3.15;;
53293;SDS011;39181;53.440;5.644;2024-02-28T00:21:36;10.75;;;3.97;;
53293;SDS011;39181;53.440;5.644;2024-02-28T00:24:02;8.57;;;4.25;;
53293;SDS011;39181;53.440;5.644;2024-02-28T00:26:27;9.23;;;4.97;;
53293;SDS011;39181;53.440;5.644;2024-02-28T00:28:53;7.63;;;4.53;;
53293;SDS011;39181;53.440;5.644;2024-02-28T00:31:18;8.38;;;4.40;;
53293;SDS011;39181;53.440;5.644;2024-02-28T00:33:46;12.07;;;5.53;;
53293;SDS011;39181;53.440;5.644;2024-02-28T00:36:12;10.85;;;5.40;;
53293;SDS011;39181;53.440;5.644;2024-02-28T00:38:37;10.32;;;5.50;;
53293;SDS011;39181;53.440;5.644;2024-02-28T00:41:03;8.70;;;5.22;;
53293;SDS011;39181;53.440;5.644;2024-02-28T00:43:29;9.63;;;5.55;;
53293;SDS011;39181;53.440;5.644;2024-02-28T00:45:54;9.70;;;6.20;;
53293;SDS011;39181;53.440;5.644;2024-02-28T00:48:20;10.38;;;6.25;;
53293;SDS011;39181;53.440;5.644;2024-02-28T00:50:47;12.93;;;7.78;;
53293;SDS011;39181;53.440;5.644;2024-02-28T00:53:12;14.15;;;7.32;;
53293;SDS011;39181;53.440;5.644;2024-02-28T00:55:38;11.25;;;6.78;;
53293;SDS011;39181;53.440;5.644;2024-02-28T00:58:03;9.65;;;6.38;;
53293;SDS011;39181;53.440;5.644;2024-02-28T01:00:29;10.82;;;7.30;;
53293;SDS011;39181;53.440;5.644;2024-02-28T01:02:55;12.85;;;7.20;;
53293;SDS011;39181;53.440;5.644;2024-02-28T01:05:21;14.20;;;7.07;;
53293;SDS011;39181;53.440;5.644;2024-02-28T01:07:46;9.40;;;5.97;;
53293;SDS011;39181;53.440;5.644;2024-02-28T01:10:12;11.77;;;7.38;;
53293;SDS011;39181;53.440;5.644;2024-02-28T01:12:37;12.05;;;6.70;;
53293;SDS011;39181;53.440;5.644;2024-02-28T01:15:03;14.07;;;6.47;;
53293;SDS011;39181;53.440;5.644;2024-02-28T01:17:29;13.63;;;8.25;;
53293;SDS011;39181;53.440;5.644;2024-02-28T01:19:55;13.10;;;6.88;;
53293;SDS011;39181;53.440;5.644;2024-02-28T01:22:21;10.48;;;6.03;;
53293;SDS011;39181;53.440;5.644;2024-02-28T01:24:47;9.13;;;6.47;;
53293;SDS011;39181;53.440;5.644;2024-02-28T01:27:12;12.80;;;6.40;;
53293;SDS011;39181;53.440;5.644;2024-02-28T01:29:38;15.85;;;6.25;;
53293;SDS011;39181;53.440;5.644;2024-02-28T01:32:03;9.38;;;5.90;;
53293;SDS011;39181;53.440;5.644;2024-02-28T01:34:29;12.70;;;5.90;;
53293;SDS011;39181;53.440;5.644;2024-02-28T01:36:55;10.57;;;6.60;;
53293;SDS011;39181;53.440;5.644;2024-02-28T01:39:20;9.95;;;5.32;;
53293;SDS011;39181;53.440;5.644;2024-02-28T01:41:53;10.68;;;5.93;;
53293;SDS011;39181;53.440;5.644;2024-02-28T01:44:19;12.40;;;5.28;;
53293;SDS011;39181;53.440;5.644;2024-02-28T01:46:45;9.18;;;5.85;;
53293;SDS011;39181;53.440;5.644;2024-02-28T01:49:11;12.30;;;5.47;;
53293;SDS011;39181;53.440;5.644;2024-02-28T01:51:37;9.07;;;4.75;;
53293;SDS011;39181;53.440;5.644;2024-02-28T01:54:03;11.63;;;5.63;;
53293;SDS011;39181;53.440;5.644;2024-02-28T01:56:28;14.55;;;5.35;;
53293;SDS011;39181;53.440;5.644;2024-02-28T01:58:56;10.93;;;5.43;;
53293;SDS011;39181;53.440;5.644;2024-02-28T02:01:23;15.15;;;6.25;;
53293;SDS011;39181;53.440;5.644;2024-02-28T02:03:48;10.13;;;6.18;;
53293;SDS011;39181;53.440;5.644;2024-02-28T02:06:14;12.50;;;6.07;;
53293;SDS011;39181;53.440;5.644;2024-02-28T02:08:40;10.50;;;5.47;;
53293;SDS011;39181;53.440;5.644;2024-02-28T02:11:06;11.55;;;6.53;;
53293;SDS011;39181;53.440;5.644;2024-02-28T02:13:32;8.80;;;5.75;;
53293;SDS011;39181;53.440;5.644;2024-02-28T02:15:57;11.05;;;6.03;;
53293;SDS011;39181;53.440;5.644;2024-02-28T02:18:23;11.52;;;5.95;;
53293;SDS011;39181;53.440;5.644;2024-02-28T02:20:58;9.80;;;6.82;;
53293;SDS011;39181;53.440;5.644;2024-02-28T02:23:30;9.98;;;6.55;;
53293;SDS011;39181;53.440;5.644;2024-02-28T02:25:55;8.63;;;6.38;;
53293;SDS011;39181;53.440;5.644;2024-02-28T02:28:21;9.73;;;6.70;;
53293;SDS011;39181;53.440;5.644;2024-02-28T02:30:47;11.70;;;6.32;;
53293;SDS011;39181;53.440;5.644;2024-02-28T02:33:12;10.20;;;6.70;;
53293;SDS011;39181;53.440;5.644;2024-02-28T02:35:38;10.13;;;6.88;;
53293;SDS011;39181;53.440;5.644;2024-02-28T02:38:03;14.18;;;7.80;;
53293;SDS011;39181;53.440;5.644;2024-02-28T02:40:29;15.93;;;7.93;;
53293;SDS011;39181;53.440;5.644;2024-02-28T02:42:54;13.98;;;7.72;;
53293;SDS011;39181;53.440;5.644;2024-02-28T02:45:20;12.10;;;8.05;;
53293;SDS011;39181;53.440;5.644;2024-02-28T02:47:46;12.10;;;7.10;;
53293;SDS011;39181;53.440;5.644;2024-02-28T02:50:11;12.77;;;7.55;;
53293;SDS011;39181;53.440;5.644;2024-02-28T02:52:37;16.83;;;7.47;;
53293;SDS011;39181;53.440;5.644;2024-02-28T02:55:03;11.30;;;6.80;;
53293;SDS011;39181;53.440;5.644;2024-02-28T02:57:29;11.15;;;6.30;;
53293;SDS011;39181;53.440;5.644;2024-02-28T02:59:57;13.93;;;7.63;;
53293;SDS011;39181;53.440;5.644;2024-02-28T03:02:23;15.98;;;7.05;;
53293;SDS011;39181;53.440;5.644;2024-02-28T03:04:48;10.75;;;7.10;;
53293;SDS011;39181;53.440;5.644;2024-02-28T03:07:14;10.50;;;7.20;;
53293;SDS011;39181;53.440;5.644;2024-02-28T03:09:40;11.38;;;6.78;;
53293;SDS011;39181;53.440;5.644;2024-02-28T03:12:06;11.85;;;7.28;;
53293;SDS011;39181;53.440;5.644;2024-02-28T03:14:32;12.43;;;7.05;;
53293;SDS011;39181;53.440;5.644;2024-02-28T03:16:57;14.52;;;7.65;;
53293;SDS011;39181;53.440;5.644;2024-02-28T03:19:23;13.63;;;8.20;;
53293;SDS011;39181;53.440;5.644;2024-02-28T03:21:48;17.52;;;7.63;;
53293;SDS011;39181;53.440;5.644;2024-02-28T03:24:14;15.50;;;7.38;;
53293;SDS011;39181;53.440;5.644;2024-02-28T03:26:40;12.25;;;7.43;;
53293;SDS011;39181;53.440;5.644;2024-02-28T03:29:05;13.75;;;6.93;;
53293;SDS011;39181;53.440;5.644;2024-02-28T03:31:31;17.00;;;8.23;;
53293;SDS011;39181;53.440;5.644;2024-02-28T03:33:57;16.67;;;8.55;;
53293;SDS011;39181;53.440;5.644;2024-02-28T03:36:22;12.75;;;7.20;;
53293;SDS011;39181;53.440;5.644;2024-02-28T03:38:48;13.38;;;8.15;;
53293;SDS011;39181;53.440;5.644;2024-02-28T03:41:14;17.17;;;8.82;;
53293;SDS011;39181;53.440;5.644;2024-02-28T03:43:39;17.35;;;8.98;;
53293;SDS011;39181;53.440;5.644;2024-02-28T03:46:05;15.25;;;9.50;;
53293;SDS011;39181;53.440;5.644;2024-02-28T03:48:30;21.08;;;8.90;;
53293;SDS011;39181;53.440;5.644;2024-02-28T03:50:56;20.63;;;8.73;;
53293;SDS011;39181;53.440;5.644;2024-02-28T03:53:21;14.02;;;8.13;;
53293;SDS011;39181;53.440;5.644;2024-02-28T03:55:48;15.75;;;8.55;;
53293;SDS011;39181;53.440;5.644;2024-02-28T03:58:15;17.95;;;9.30;;
53293;SDS011;39181;53.440;5.644;2024-02-28T04:00:40;20.25;;;9.25;;
53293;SDS011;39181;53.440;5.644;2024-02-28T04:03:09;18.25;;;9.60;;
53293;SDS011;39181;53.440;5.644;2024-02-28T04:05:35;19.58;;;10.18;;
53293;SDS011;39181;53.440;5.644;2024-02-28T04:08:00;14.93;;;9.93;;
53293;SDS011;39181;53.440;5.644;2024-02-28T04:10:26;21.65;;;11.27;;
53293;SDS011;39181;53.440;5.644;2024-02-28T04:12:51;20.60;;;11.02;;
53293;SDS011;39181;53.440;5.644;2024-02-28T04:15:17;19.05;;;12.38;;
53293;SDS011;39181;53.440;5.644;2024-02-28T04:17:43;19.92;;;11.38;;
53293;SDS011;39181;53.440;5.644;2024-02-28T04:20:11;21.00;;;11.63;;
53293;SDS011;39181;53.440;5.644;2024-02-28T04:22:38;20.48;;;11.73;;
53293;SDS011;39181;53.440;5.644;2024-02-28T04:25:04;18.25;;;11.30;;
53293;SDS011;39181;53.440;5.644;2024-02-28T04:27:30;18.42;;;11.70;;
53293;SDS011;39181;53.440;5.644;2024-02-28T04:29:56;23.83;;;12.65;;
53293;SDS011;39181;53.440;5.644;2024-02-28T04:32:21;19.98;;;11.50;;
53293;SDS011;39181;53.440;5.644;2024-02-28T04:34:47;18.83;;;11.63;;
53293;SDS011;39181;53.440;5.644;2024-02-28T04:37:12;22.52;;;12.10;;
53293;SDS011;39181;53.440;5.644;2024-02-28T04:39:38;24.20;;;11.90;;
53293;SDS011;39181;53.440;5.644;2024-02-28T04:42:03;23.60;;;12.00;;
53293;SDS011;39181;53.440;5.644;2024-02-28T04:44:29;21.70;;;12.02;;
53293;SDS011;39181;53.440;5.644;2024-02-28T04:46:55;21.42;;;12.55;;
53293;SDS011;39181;53.440;5.644;2024-02-28T04:49:20;21.67;;;12.48;;
53293;SDS011;39181;53.440;5.644;2024-02-28T04:51:46;25.27;;;12.00;;
53293;SDS011;39181;53.440;5.644;2024-02-28T04:54:12;21.50;;;12.55;;
53293;SDS011;39181;53.440;5.644;2024-02-28T04:56:41;25.13;;;11.85;;
53293;SDS011;39181;53.440;5.644;2024-02-28T04:59:07;17.65;;;12.07;;
53293;SDS011;39181;53.440;5.644;2024-02-28T05:01:33;21.58;;;12.95;;
53293;SDS011;39181;53.440;5.644;2024-02-28T05:04:00;23.80;;;11.35;;
53293;SDS011;39181;53.440;5.644;2024-02-28T05:06:27;29.88;;;13.88;;
53293;SDS011;39181;53.440;5.644;2024-02-28T05:08:53;32.70;;;13.48;;
53293;SDS011;39181;53.440;5.644;2024-02-28T05:11:18;34.10;;;15.13;;
53293;SDS011;39181;53.440;5.644;2024-02-28T05:13:44;25.92;;;13.30;;
53293;SDS011;39181;53.440;5.644;2024-02-28T05:16:13;32.17;;;16.35;;
53293;SDS011;39181;53.440;5.644;2024-02-28T05:18:39;28.02;;;14.20;;
53293;SDS011;39181;53.440;5.644;2024-02-28T05:21:04;28.38;;;15.57;;
53293;SDS011;39181;53.440;5.644;2024-02-28T05:23:30;25.05;;;14.43;;
53293;SDS011;39181;53.440;5.644;2024-02-28T05:25:56;33.47;;;14.55;;
53293;SDS011;39181;53.440;5.644;2024-02-28T05:28:22;27.23;;;14.65;;
53293;SDS011;39181;53.440;5.644;2024-02-28T05:30:48;27.45;;;12.80;;
53293;SDS011;39181;53.440;5.644;2024-02-28T05:33:14;24.08;;;12.77;;
53293;SDS011;39181;53.440;5.644;2024-02-28T05:35:40;25.00;;;13.02;;
53293;SDS011;39181;53.440;5.644;2024-02-28T05:38:05;29.92;;;13.63;;
53293;SDS011;39181;53.440;5.644;2024-02-28T05:40:31;29.83;;;14.43;;
53293;SDS011;39181;53.440;5.644;2024-02-28T05:42:57;28.75;;;13.25;;
53293;SDS011;39181;53.440;5.644;2024-02-28T05:45:22;27.83;;;13.38;;
53293;SDS011;39181;53.440;5.644;2024-02-28T05:47:48;32.90;;;14.48;;
53293;SDS011;39181;53.440;5.644;2024-02-28T05:50:14;34.97;;;13.02;;
53293;SDS011;39181;53.440;5.644;2024-02-28T05:52:43;31.85;;;13.65;;
53293;SDS011;39181;53.440;5.644;2024-02-28T05:55:09;31.08;;;15.00;;
53293;SDS011;39181;53.440;5.644;2024-02-28T05:57:34;28.23;;;13.65;;
53293;SDS011;39181;53.440;5.644;2024-02-28T06:00:00;33.40;;;15.02;;
53293;SDS011;39181;53.440;5.644;2024-02-28T06:02:29;34.38;;;12.43;;
53293;SDS011;39181;53.440;5.644;2024-02-28T06:04:55;33.50;;;13.93;;
53293;SDS011;39181;53.440;5.644;2024-02-28T06:07:24;24.80;;;13.27;;
53293;SDS011;39181;53.440;5.644;2024-02-28T06:09:50;30.25;;;14.40;;
53293;SDS011;39181;53.440;5.644;2024-02-28T06:12:15;31.52;;;12.95;;
53293;SDS011;39181;53.440;5.644;2024-02-28T06:14:41;31.05;;;13.02;;
53293;SDS011;39181;53.440;5.644;2024-02-28T06:17:06;33.90;;;14.38;;
53293;SDS011;39181;53.440;5.644;2024-02-28T06:19:32;35.00;;;14.50;;
53293;SDS011;39181;53.440;5.644;2024-02-28T06:21:58;32.70;;;15.32;;
53293;SDS011;39181;53.440;5.644;2024-02-28T06:24:23;27.48;;;14.27;;
53293;SDS011;39181;53.440;5.644;2024-02-28T06:26:51;31.10;;;13.75;;
53293;SDS011;39181;53.440;5.644;2024-02-28T06:29:17;33.30;;;13.90;;
53293;SDS011;39181;53.440;5.644;2024-02-28T06:31:42;25.00;;;12.05;;
53293;SDS011;39181;53.440;5.644;2024-02-28T06:34:08;28.95;;;13.93;;
53293;SDS011;39181;53.440;5.644;2024-02-28T06:36:33;28.75;;;13.70;;
53293;SDS011;39181;53.440;5.644;2024-02-28T06:38:59;25.73;;;12.15;;
53293;SDS011;39181;53.440;5.644;2024-02-28T06:41:25;20.83;;;12.02;;
53293;SDS011;39181;53.440;5.644;2024-02-28T06:43:50;28.10;;;12.85;;
53293;SDS011;39181;53.440;5.644;2024-02-28T06:46:16;24.42;;;12.10;;
53293;SDS011;39181;53.440;5.644;2024-02-28T06:48:42;22.20;;;11.30;;
53293;SDS011;39181;53.440;5.644;2024-02-28T06:51:08;24.52;;;10.93;;
53293;SDS011;39181;53.440;5.644;2024-02-28T06:53:33;34.65;;;12.25;;
53293;SDS011;39181;53.440;5.644;2024-02-28T06:56:00;26.38;;;12.43;;
53293;SDS011;39181;53.440;5.644;2024-02-28T06:58:27;30.20;;;12.95;;
53293;SDS011;39181;53.440;5.644;2024-02-28T07:00:52;24.00;;;12.85;;
53293;SDS011;39181;53.440;5.644;2024-02-28T07:03:18;23.17;;;12.60;;
53293;SDS011;39181;53.440;5.644;2024-02-28T07:05:43;29.10;;;12.65;;
53293;SDS011;39181;53.440;5.644;2024-02-28T07:08:09;28.75;;;13.20;;
53293;SDS011;39181;53.440;5.644;2024-02-28T07:10:36;32.05;;;12.10;;
53293;SDS011;39181;53.440;5.644;2024-02-28T07:13:02;24.80;;;12.40;;
53293;SDS011;39181;53.440;5.644;2024-02-28T07:15:28;31.67;;;12.32;;
53293;SDS011;39181;53.440;5.644;2024-02-28T07:17:53;28.05;;;12.93;;
53293;SDS011;39181;53.440;5.644;2024-02-28T07:20:19;26.42;;;12.35;;
53293;SDS011;39181;53.440;5.644;2024-02-28T07:22:45;31.05;;;12.48;;
53293;SDS011;39181;53.440;5.644;2024-02-28T07:25:11;23.77;;;11.70;;
53293;SDS011;39181;53.440;5.644;2024-02-28T07:27:37;26.15;;;12.10;;
53293;SDS011;39181;53.440;5.644;2024-02-28T07:30:03;27.27;;;11.43;;
53293;SDS011;39181;53.440;5.644;2024-02-28T07:32:29;30.45;;;12.52;;
53293;SDS011;39181;53.440;5.644;2024-02-28T07:34:59;29.52;;;12.25;;
53293;SDS011;39181;53.440;5.644;2024-02-28T07:37:26;27.42;;;12.10;;
53293;SDS011;39181;53.440;5.644;2024-02-28T07:39:51;25.88;;;12.43;;
53293;SDS011;39181;53.440;5.644;2024-02-28T07:42:17;24.10;;;12.98;;
53293;SDS011;39181;53.440;5.644;2024-02-28T07:44:42;26.08;;;13.02;;
53293;SDS011;39181;53.440;5.644;2024-02-28T07:47:08;26.85;;;12.80;;
53293;SDS011;39181;53.440;5.644;2024-02-28T07:49:34;25.92;;;12.63;;
53293;SDS011;39181;53.440;5.644;2024-02-28T07:51:59;27.73;;;13.27;;
53293;SDS011;39181;53.440;5.644;2024-02-28T07:54:25;25.05;;;13.98;;
53293;SDS011;39181;53.440;5.644;2024-02-28T07:56:52;32.00;;;12.30;;
53293;SDS011;39181;53.440;5.644;2024-02-28T07:59:18;26.58;;;11.80;;
53293;SDS011;39181;53.440;5.644;2024-02-28T08:01:44;33.55;;;13.05;;
53293;SDS011;39181;53.440;5.644;2024-02-28T08:04:10;34.92;;;12.07;;
53293;SDS011;39181;53.440;5.644;2024-02-28T08:06:35;23.10;;;11.57;;
53293;SDS011;39181;53.440;5.644;2024-02-28T08:09:01;24.23;;;11.98;;
53293;SDS011;39181;53.440;5.644;2024-02-28T08:11:29;26.50;;;12.00;;
53293;SDS011;39181;53.440;5.644;2024-02-28T08:13:55;28.27;;;12.23;;
53293;SDS011;39181;53.440;5.644;2024-02-28T08:16:20;30.23;;;12.57;;
53293;SDS011;39181;53.440;5.644;2024-02-28T08:18:46;32.28;;;13.63;;
53293;SDS011;39181;53.440;5.644;2024-02-28T08:21:11;30.15;;;13.43;;
53293;SDS011;39181;53.440;5.644;2024-02-28T08:23:37;32.63;;;14.05;;
53293;SDS011;39181;53.440;5.644;2024-02-28T08:26:03;28.77;;;13.13;;
53293;SDS011;39181;53.440;5.644;2024-02-28T08:28:29;32.95;;;14.45;;
53293;SDS011;39181;53.440;5.644;2024-02-28T08:30:54;27.17;;;14.05;;
53293;SDS011;39181;53.440;5.644;2024-02-28T08:33:20;34.67;;;14.48;;
53293;SDS011;39181;53.440;5.644;2024-02-28T08:35:46;33.83;;;15.40;;
53293;SDS011;39181;53.440;5.644;2024-02-28T08:38:11;28.40;;;15.93;;
53293;SDS011;39181;53.440;5.644;2024-02-28T08:40:37;36.55;;;14.40;;
53293;SDS011;39181;53.440;5.644;2024-02-28T08:43:02;31.50;;;15.50;;
53293;SDS011;39181;53.440;5.644;2024-02-28T08:45:28;34.45;;;14.95;;
53293;SDS011;39181;53.440;5.644;2024-02-28T08:47:54;33.75;;;14.63;;
53293;SDS011;39181;53.440;5.644;2024-02-28T08:50:19;24.63;;;12.90;;
53293;SDS011;39181;53.440;5.644;2024-02-28T08:52:45;26.35;;;15.00;;
53293;SDS011;39181;53.440;5.644;2024-02-28T08:55:11;33.78;;;16.13;;
53293;SDS011;39181;53.440;5.644;2024-02-28T08:57:36;30.50;;;16.35;;
53293;SDS011;39181;53.440;5.644;2024-02-28T09:00:02;30.95;;;14.68;;
53293;SDS011;39181;53.440;5.644;2024-02-28T09:02:28;30.98;;;14.57;;
53293;SDS011;39181;53.440;5.644;2024-02-28T09:04:53;34.92;;;14.38;;
53293;SDS011;39181;53.440;5.644;2024-02-28T09:07:21;29.88;;;14.70;;
53293;SDS011;39181;53.440;5.644;2024-02-28T09:09:47;29.40;;;14.55;;
53293;SDS011;39181;53.440;5.644;2024-02-28T09:12:13;31.02;;;14.82;;
53293;SDS011;39181;53.440;5.644;2024-02-28T09:14:38;32.45;;;13.93;;
53293;SDS011;39181;53.440;5.644;2024-02-28T09:17:04;28.70;;;13.65;;
53293;SDS011;39181;53.440;5.644;2024-02-28T09:19:30;27.40;;;13.52;;
53293;SDS011;39181;53.440;5.644;2024-02-28T09:21:56;26.15;;;14.02;;
53293;SDS011;39181;53.440;5.644;2024-02-28T09:24:25;25.48;;;13.23;;
53293;SDS011;39181;53.440;5.644;2024-02-28T09:26:51;30.30;;;13.70;;
53293;SDS011;39181;53.440;5.644;2024-02-28T09:29:16;34.28;;;14.75;;
53293;SDS011;39181;53.440;5.644;2024-02-28T09:31:42;28.05;;;13.88;;
53293;SDS011;39181;53.440;5.644;2024-02-28T09:34:08;29.35;;;13.35;;
53293;SDS011;39181;53.440;5.644;2024-02-28T09:36:44;30.83;;;15.18;;
53293;SDS011;39181;53.440;5.644;2024-02-28T09:39:12;25.48;;;13.20;;
53293;SDS011;39181;53.440;5.644;2024-02-28T09:41:40;29.40;;;13.32;;
53293;SDS011;39181;53.440;5.644;2024-02-28T09:44:06;30.90;;;13.10;;
53293;SDS011;39181;53.440;5.644;2024-02-28T09:46:33;25.92;;;13.45;;
53293;SDS011;39181;53.440;5.644;2024-02-28T09:49:03;27.17;;;12.27;;
53293;SDS011;39181;53.440;5.644;2024-02-28T09:51:30;22.27;;;12.38;;
53293;SDS011;39181;53.440;5.644;2024-02-28T09:54:04;24.80;;;12.05;;
53293;SDS011;39181;53.440;5.644;2024-02-28T09:56:30;23.30;;;11.70;;
53293;SDS011;39181;53.440;5.644;2024-02-28T09:58:56;29.83;;;11.55;;
53293;SDS011;39181;53.440;5.644;2024-02-28T10:01:22;30.42;;;10.93;;
53293;SDS011;39181;53.440;5.644;2024-02-28T10:03:50;22.67;;;10.90;;
53293;SDS011;39181;53.440;5.644;2024-02-28T10:06:17;24.17;;;12.38;;
53293;SDS011;39181;53.440;5.644;2024-02-28T10:08:43;23.48;;;11.23;;
53293;SDS011;39181;53.440;5.644;2024-02-28T10:11:16;25.75;;;11.63;;
53293;SDS011;39181;53.440;5.644;2024-02-28T10:13:46;23.55;;;11.38;;
53293;SDS011;39181;53.440;5.644;2024-02-28T10:16:12;24.77;;;11.50;;
53293;SDS011;39181;53.440;5.644;2024-02-28T10:18:39;27.70;;;11.95;;
53293;SDS011;39181;53.440;5.644;2024-02-28T10:21:05;22.38;;;11.50;;
53293;SDS011;39181;53.440;5.644;2024-02-28T10:23:30;23.88;;;11.20;;
53293;SDS011;39181;53.440;5.644;2024-02-28T10:25:56;24.85;;;12.00;;
53293;SDS011;39181;53.440;5.644;2024-02-28T10:28:22;18.83;;;11.10;;
53293;SDS011;39181;53.440;5.644;2024-02-28T10:30:47;30.15;;;12.30;;
53293;SDS011;39181;53.440;5.644;2024-02-28T10:33:13;33.28;;;12.52;;
53293;SDS011;39181;53.440;5.644;2024-02-28T10:35:40;23.05;;;12.05;;
53293;SDS011;39181;53.440;5.644;2024-02-28T10:38:08;25.08;;;13.35;;
53293;SDS011;39181;53.440;5.644;2024-02-28T10:40:36;25.45;;;12.93;;
53293;SDS011;39181;53.440;5.644;2024-02-28T10:43:02;24.60;;;13.93;;
53293;SDS011;39181;53.440;5.644;2024-02-28T10:45:29;29.85;;;13.65;;
53293;SDS011;39181;53.440;5.644;2024-02-28T10:47:56;23.13;;;12.60;;
53293;SDS011;39181;53.440;5.644;2024-02-28T10:50:22;28.05;;;12.00;;
53293;SDS011;39181;53.440;5.644;2024-02-28T10:52:48;23.75;;;11.73;;
53293;SDS011;39181;53.440;5.644;2024-02-28T10:55:24;24.67;;;11.48;;
53293;SDS011;39181;53.440;5.644;2024-02-28T10:58:06;25.00;;;10.88;;
53293;SDS011;39181;53.440;5.644;2024-02-28T11:00:33;20.65;;;10.68;;
53293;SDS011;39181;53.440;5.644;2024-02-28T11:03:00;25.88;;;10.45;;
53293;SDS011;39181;53.440;5.644;2024-02-28T11:05:39;20.30;;;9.85;;
53293;SDS011;39181;53.440;5.644;2024-02-28T11:08:09;19.63;;;10.15;;
53293;SDS011;39181;53.440;5.644;2024-02-28T11:10:35;24.20;;;11.30;;
53293;SDS011;39181;53.440;5.644;2024-02-28T11:13:08;19.95;;;10.35;;
53293;SDS011;39181;53.440;5.644;2024-02-28T11:15:36;27.40;;;11.63;;
53293;SDS011;39181;53.440;5.644;2024-02-28T11:18:08;21.85;;;10.15;;
53293;SDS011;39181;53.440;5.644;2024-02-28T11:20:37;21.70;;;10.27;;
53293;SDS011;39181;53.440;5.644;2024-02-28T11:23:05;16.25;;;10.30;;
53293;SDS011;39181;53.440;5.644;2024-02-28T11:25:31;21.90;;;10.30;;
53293;SDS011;39181;53.440;5.644;2024-02-28T11:27:57;18.85;;;10.45;;
53293;SDS011;39181;53.440;5.644;2024-02-28T11:30:24;20.55;;;10.77;;
53293;SDS011;39181;53.440;5.644;2024-02-28T11:32:51;17.05;;;9.95;;
53293;SDS011;39181;53.440;5.644;2024-02-28T11:35:18;19.35;;;10.27;;
53293;SDS011;39181;53.440;5.644;2024-02-28T11:37:45;17.00;;;10.85;;
53293;SDS011;39181;53.440;5.644;2024-02-28T11:40:12;25.52;;;11.20;;
53293;SDS011;39181;53.440;5.644;2024-02-28T11:42:38;23.52;;;11.23;;
53293;SDS011;39181;53.440;5.644;2024-02-28T11:45:04;20.98;;;11.77;;
53293;SDS011;39181;53.440;5.644;2024-02-28T11:47:34;18.35;;;10.23;;
53293;SDS011;39181;53.440;5.644;2024-02-28T11:50:03;17.58;;;11.73;;
53293;SDS011;39181;53.440;5.644;2024-02-28T11:52:33;28.40;;;13.38;;
53293;SDS011;39181;53.440;5.644;2024-02-28T11:54:58;20.50;;;12.15;;
53293;SDS011;39181;53.440;5.644;2024-02-28T11:57:25;22.30;;;12.52;;
53293;SDS011;39181;53.440;5.644;2024-02-28T11:59:51;24.00;;;14.65;;
53293;SDS011;39181;53.440;5.644;2024-02-28T12:02:17;25.17;;;12.98;;
53293;SDS011;39181;53.440;5.644;2024-02-28T12:04:43;28.95;;;15.60;;
53293;SDS011;39181;53.440;5.644;2024-02-28T12:07:10;23.58;;;13.48;;
53293;SDS011;39181;53.440;5.644;2024-02-28T12:09:36;25.27;;;13.93;;
53293;SDS011;39181;53.440;5.644;2024-02-28T12:12:03;26.33;;;14.50;;
53293;SDS011;39181;53.440;5.644;2024-02-28T12:14:31;25.05;;;15.60;;
53293;SDS011;39181;53.440;5.644;2024-02-28T12:17:00;29.67;;;16.23;;
53293;SDS011;39181;53.440;5.644;2024-02-28T12:19:28;27.95;;;16.13;;
53293;SDS011;39181;53.440;5.644;2024-02-28T12:21:53;21.48;;;14.27;;
53293;SDS011;39181;53.440;5.644;2024-02-28T12:24:19;29.33;;;15.35;;
53293;SDS011;39181;53.440;5.644;2024-02-28T12:26:45;27.63;;;16.42;;
53293;SDS011;39181;53.440;5.644;2024-02-28T12:29:11;27.15;;;18.20;;
53293;SDS011;39181;53.440;5.644;2024-02-28T12:31:36;29.75;;;16.73;;
53293;SDS011;39181;53.440;5.644;2024-02-28T12:34:02;27.95;;;16.77;;
53293;SDS011;39181;53.440;5.644;2024-02-28T12:36:30;36.22;;;18.45;;
53293;SDS011;39181;53.440;5.644;2024-02-28T12:38:57;25.67;;;15.73;;
53293;SDS011;39181;53.440;5.644;2024-02-28T12:41:24;26.30;;;16.17;;
53293;SDS011;39181;53.440;5.644;2024-02-28T12:43:50;27.05;;;17.55;;
53293;SDS011;39181;53.440;5.644;2024-02-28T12:46:16;28.40;;;18.05;;
53293;SDS011;39181;53.440;5.644;2024-02-28T12:48:42;26.10;;;17.33;;
53293;SDS011;39181;53.440;5.644;2024-02-28T12:51:11;27.95;;;17.75;;
53293;SDS011;39181;53.440;5.644;2024-02-28T12:53:45;30.60;;;17.20;;
53293;SDS011;39181;53.440;5.644;2024-02-28T12:56:12;28.52;;;17.95;;
53293;SDS011;39181;53.440;5.644;2024-02-28T12:58:37;30.02;;;17.90;;
53293;SDS011;39181;53.440;5.644;2024-02-28T13:01:03;29.30;;;17.92;;
53293;SDS011;39181;53.440;5.644;2024-02-28T13:03:29;31.67;;;19.05;;
53293;SDS011;39181;53.440;5.644;2024-02-28T13:05:55;30.50;;;18.83;;
53293;SDS011;39181;53.440;5.644;2024-02-28T13:08:21;30.08;;;18.85;;
53293;SDS011;39181;53.440;5.644;2024-02-28T13:10:46;30.52;;;17.77;;
53293;SDS011;39181;53.440;5.644;2024-02-28T13:13:12;31.77;;;18.98;;
53293;SDS011;39181;53.440;5.644;2024-02-28T13:15:38;29.17;;;18.15;;
53293;SDS011;39181;53.440;5.644;2024-02-28T13:18:05;28.05;;;20.17;;
53293;SDS011;39181;53.440;5.644;2024-02-28T13:20:34;29.25;;;18.77;;
53293;SDS011;39181;53.440;5.644;2024-02-28T13:23:00;31.98;;;19.08;;
53293;SDS011;39181;53.440;5.644;2024-02-28T13:25:25;32.63;;;19.80;;
53293;SDS011;39181;53.440;5.644;2024-02-28T13:27:51;32.63;;;19.98;;
53293;SDS011;39181;53.440;5.644;2024-02-28T13:30:17;33.88;;;21.42;;
53293;SDS011;39181;53.440;5.644;2024-02-28T13:32:42;29.02;;;19.45;;
53293;SDS011;39181;53.440;5.644;2024-02-28T13:35:08;31.77;;;19.38;;
53293;SDS011;39181;53.440;5.644;2024-02-28T13:37:35;31.45;;;19.30;;
53293;SDS011;39181;53.440;5.644;2024-02-28T13:40:02;29.08;;;19.25;;
53293;SDS011;39181;53.440;5.644;2024-02-28T13:42:29;31.92;;;18.73;;
53293;SDS011;39181;53.440;5.644;2024-02-28T13:44:55;29.58;;;19.65;;
53293;SDS011;39181;53.440;5.644;2024-02-28T13:47:20;33.65;;;20.27;;
53293;SDS011;39181;53.440;5.644;2024-02-28T13:49:46;31.50;;;20.80;;
53293;SDS011;39181;53.440;5.644;2024-02-28T13:52:12;30.02;;;20.30;;
53293;SDS011;39181;53.440;5.644;2024-02-28T13:54:38;29.00;;;19.75;;
53293;SDS011;39181;53.440;5.644;2024-02-28T13:57:03;37.33;;;19.50;;
53293;SDS011;39181;53.440;5.644;2024-02-28T13:59:30;31.83;;;19.48;;
53293;SDS011;39181;53.440;5.644;2024-02-28T14:01:55;34.60;;;20.50;;
53293;SDS011;39181;53.440;5.644;2024-02-28T14:04:21;31.17;;;19.50;;
53293;SDS011;39181;53.440;5.644;2024-02-28T14:06:47;33.47;;;20.00;;
53293;SDS011;39181;53.440;5.644;2024-02-28T14:09:14;31.85;;;20.52;;
53293;SDS011;39181;53.440;5.644;2024-02-28T14:11:40;29.30;;;18.27;;
53293;SDS011;39181;53.440;5.644;2024-02-28T14:14:05;33.17;;;19.05;;
53293;SDS011;39181;53.440;5.644;2024-02-28T14:16:32;31.00;;;19.15;;
53293;SDS011;39181;53.440;5.644;2024-02-28T14:18:57;30.33;;;19.65;;
53293;SDS011;39181;53.440;5.644;2024-02-28T14:21:23;25.90;;;18.17;;